sensor_id;sensor_type;location;lat;lon;timestamp;P1;durP1;ratioP1;P2;durP2;ratioP2
8652;SDS011;4364;52.426;9.424;2023-07-09T00:01:13;12.47;;;10.37;;
8652;SDS011;4364;52.426;9.424;2023-07-09T00:03:41;12.33;;;11.03;;
8652;SDS011;4364;52.426;9.424;2023-07-09T00:06:07;14.87;;;11.33;;
8652;SDS011;4364;52.426;9.424;2023-07-09T00:08:35;13.93;;;11.33;;
8652;SDS011;4364;52.426;9.424;2023-07-09T00:11:03;11.57;;;10.37;;
8652;SDS011;4364;52.426;9.424;2023-07-09T00:13:29;12.73;;;10.97;;
8652;SDS011;4364;52.426;9.424;2023-07-09T00:15:59;15.33;;;11.63;;
8652;SDS011;4364;52.426;9.424;2023-07-09T00:18:29;14.53;;;11.83;;
8652;SDS011;4364;52.426;9.424;2023-07-09T00:20:56;15.77;;;11.93;;
8652;SDS011;4364;52.426;9.424;2023-07-09T00:23:22;16.17;;;11.90;;
8652;SDS011;4364;52.426;9.424;2023-07-09T00:25:48;14.50;;;10.90;;
8652;SDS011;4364;52.426;9.424;2023-07-09T00:28:16;13.23;;;10.67;;
8652;SDS011;4364;52.426;9.424;2023-07-09T00:30:44;12.93;;;10.47;;
8652;SDS011;4364;52.426;9.424;2023-07-09T00:33:12;12.33;;;11.03;;
8652;SDS011;4364;52.426;9.424;2023-07-09T00:35:45;13.23;;;10.73;;
8652;SDS011;4364;52.426;9.424;2023-07-09T00:38:15;14.20;;;10.50;;
8652;SDS011;4364;52.426;9.424;2023-07-09T00:41:00;12.77;;;10.80;;
8652;SDS011;4364;52.426;9.424;2023-07-09T00:43:31;13.17;;;11.00;;
8652;SDS011;4364;52.426;9.424;2023-07-09T00:46:10;13.83;;;10.10;;
8652;SDS011;4364;52.426;9.424;2023-07-09T00:48:40;14.53;;;11.73;;
8652;SDS011;4364;52.426;9.424;2023-07-09T00:51:15;12.13;;;10.47;;
8652;SDS011;4364;52.426;9.424;2023-07-09T00:53:47;13.50;;;10.70;;
8652;SDS011;4364;52.426;9.424;2023-07-09T00:56:18;11.80;;;10.47;;
8652;SDS011;4364;52.426;9.424;2023-07-09T00:58:54;14.20;;;10.70;;
8652;SDS011;4364;52.426;9.424;2023-07-09T01:01:21;14.53;;;11.13;;
8652;SDS011;4364;52.426;9.424;2023-07-09T01:03:53;12.77;;;10.27;;
8652;SDS011;4364;52.426;9.424;2023-07-09T01:06:25;11.13;;;9.77;;
8652;SDS011;4364;52.426;9.424;2023-07-09T01:08:59;12.40;;;11.07;;
8652;SDS011;4364;52.426;9.424;2023-07-09T01:11:31;12.07;;;9.90;;
8652;SDS011;4364;52.426;9.424;2023-07-09T01:14:02;14.37;;;10.90;;
8652;SDS011;4364;52.426;9.424;2023-07-09T01:16:34;12.00;;;10.33;;
8652;SDS011;4364;52.426;9.424;2023-07-09T01:19:04;12.40;;;10.83;;
8652;SDS011;4364;52.426;9.424;2023-07-09T01:21:32;11.67;;;10.40;;
8652;SDS011;4364;52.426;9.424;2023-07-09T01:24:10;13.97;;;10.83;;
8652;SDS011;4364;52.426;9.424;2023-07-09T01:26:39;12.47;;;11.10;;
8652;SDS011;4364;52.426;9.424;2023-07-09T01:29:06;14.93;;;11.33;;
8652;SDS011;4364;52.426;9.424;2023-07-09T01:31:33;12.10;;;10.73;;
8652;SDS011;4364;52.426;9.424;2023-07-09T01:34:02;13.47;;;11.57;;
8652;SDS011;4364;52.426;9.424;2023-07-09T01:36:29;13.20;;;11.43;;
8652;SDS011;4364;52.426;9.424;2023-07-09T01:38:55;11.63;;;10.43;;
8652;SDS011;4364;52.426;9.424;2023-07-09T01:41:22;12.10;;;10.50;;
8652;SDS011;4364;52.426;9.424;2023-07-09T01:43:50;11.80;;;10.57;;
8652;SDS011;4364;52.426;9.424;2023-07-09T01:46:17;11.93;;;10.30;;
8652;SDS011;4364;52.426;9.424;2023-07-09T01:48:43;12.90;;;10.27;;
8652;SDS011;4364;52.426;9.424;2023-07-09T01:51:11;11.70;;;9.93;;
8652;SDS011;4364;52.426;9.424;2023-07-09T01:53:42;11.57;;;10.33;;
8652;SDS011;4364;52.426;9.424;2023-07-09T01:56:10;13.50;;;10.93;;
8652;SDS011;4364;52.426;9.424;2023-07-09T01:58:37;11.30;;;10.20;;
8652;SDS011;4364;52.426;9.424;2023-07-09T02:01:09;11.07;;;9.57;;
8652;SDS011;4364;52.426;9.424;2023-07-09T02:03:36;12.50;;;9.97;;
8652;SDS011;4364;52.426;9.424;2023-07-09T02:06:03;13.00;;;11.13;;
8652;SDS011;4364;52.426;9.424;2023-07-09T02:08:36;13.37;;;11.00;;
8652;SDS011;4364;52.426;9.424;2023-07-09T02:11:03;13.07;;;9.90;;
8652;SDS011;4364;52.426;9.424;2023-07-09T02:13:30;14.37;;;10.80;;
8652;SDS011;4364;52.426;9.424;2023-07-09T02:15:56;14.13;;;10.83;;
8652;SDS011;4364;52.426;9.424;2023-07-09T02:18:23;13.57;;;11.00;;
8652;SDS011;4364;52.426;9.424;2023-07-09T02:20:49;11.50;;;10.30;;
8652;SDS011;4364;52.426;9.424;2023-07-09T02:23:16;12.80;;;11.10;;
8652;SDS011;4364;52.426;9.424;2023-07-09T02:25:42;12.03;;;10.83;;
8652;SDS011;4364;52.426;9.424;2023-07-09T02:28:09;14.07;;;11.80;;
8652;SDS011;4364;52.426;9.424;2023-07-09T02:30:36;12.27;;;10.63;;
8652;SDS011;4364;52.426;9.424;2023-07-09T02:33:03;11.50;;;10.30;;
8652;SDS011;4364;52.426;9.424;2023-07-09T02:35:30;11.20;;;10.00;;
8652;SDS011;4364;52.426;9.424;2023-07-09T02:37:56;12.23;;;10.87;;
8652;SDS011;4364;52.426;9.424;2023-07-09T02:40:23;13.67;;;11.47;;
8652;SDS011;4364;52.426;9.424;2023-07-09T02:42:49;13.67;;;11.20;;
8652;SDS011;4364;52.426;9.424;2023-07-09T02:45:17;11.87;;;10.50;;
8652;SDS011;4364;52.426;9.424;2023-07-09T02:47:44;12.03;;;10.83;;
8652;SDS011;4364;52.426;9.424;2023-07-09T02:50:10;16.63;;;11.13;;
8652;SDS011;4364;52.426;9.424;2023-07-09T02:52:37;14.30;;;10.50;;
8652;SDS011;4364;52.426;9.424;2023-07-09T02:55:04;13.30;;;11.00;;
8652;SDS011;4364;52.426;9.424;2023-07-09T02:57:30;14.43;;;10.93;;
8652;SDS011;4364;52.426;9.424;2023-07-09T02:59:57;11.73;;;10.20;;
8652;SDS011;4364;52.426;9.424;2023-07-09T03:02:24;10.87;;;9.77;;
8652;SDS011;4364;52.426;9.424;2023-07-09T03:04:50;12.87;;;9.73;;
8652;SDS011;4364;52.426;9.424;2023-07-09T03:07:17;12.00;;;10.70;;
8652;SDS011;4364;52.426;9.424;2023-07-09T03:09:43;11.93;;;10.73;;
8652;SDS011;4364;52.426;9.424;2023-07-09T03:12:10;11.03;;;9.90;;
8652;SDS011;4364;52.426;9.424;2023-07-09T03:14:36;11.50;;;10.30;;
8652;SDS011;4364;52.426;9.424;2023-07-09T03:17:03;12.17;;;10.60;;
8652;SDS011;4364;52.426;9.424;2023-07-09T03:19:30;13.03;;;10.77;;
8652;SDS011;4364;52.426;9.424;2023-07-09T03:21:59;11.67;;;10.47;;
8652;SDS011;4364;52.426;9.424;2023-07-09T03:24:26;13.80;;;9.97;;
8652;SDS011;4364;52.426;9.424;2023-07-09T03:26:52;13.37;;;10.53;;
8652;SDS011;4364;52.426;9.424;2023-07-09T03:29:19;11.17;;;10.07;;
8652;SDS011;4364;52.426;9.424;2023-07-09T03:31:45;11.57;;;10.30;;
8652;SDS011;4364;52.426;9.424;2023-07-09T03:34:12;11.83;;;9.97;;
8652;SDS011;4364;52.426;9.424;2023-07-09T03:36:40;13.13;;;10.97;;
8652;SDS011;4364;52.426;9.424;2023-07-09T03:39:07;11.07;;;9.93;;
8652;SDS011;4364;52.426;9.424;2023-07-09T03:41:33;11.87;;;10.67;;
8652;SDS011;4364;52.426;9.424;2023-07-09T03:44:00;10.73;;;9.63;;
8652;SDS011;4364;52.426;9.424;2023-07-09T03:46:27;12.20;;;11.00;;
8652;SDS011;4364;52.426;9.424;2023-07-09T03:48:54;12.80;;;10.23;;
8652;SDS011;4364;52.426;9.424;2023-07-09T03:51:21;11.67;;;10.43;;
8652;SDS011;4364;52.426;9.424;2023-07-09T03:53:47;10.67;;;9.57;;
8652;SDS011;4364;52.426;9.424;2023-07-09T03:56:14;10.97;;;9.47;;
8652;SDS011;4364;52.426;9.424;2023-07-09T03:58:40;10.80;;;9.50;;
8652;SDS011;4364;52.426;9.424;2023-07-09T04:01:07;11.60;;;10.30;;
8652;SDS011;4364;52.426;9.424;2023-07-09T04:03:33;11.57;;;10.00;;
8652;SDS011;4364;52.426;9.424;2023-07-09T04:06:00;12.33;;;10.00;;
8652;SDS011;4364;52.426;9.424;2023-07-09T04:08:27;10.53;;;9.43;;
8652;SDS011;4364;52.426;9.424;2023-07-09T04:10:54;10.20;;;9.20;;
8652;SDS011;4364;52.426;9.424;2023-07-09T04:13:25;10.87;;;9.77;;
8652;SDS011;4364;52.426;9.424;2023-07-09T04:15:53;10.53;;;9.40;;
8652;SDS011;4364;52.426;9.424;2023-07-09T04:18:21;9.90;;;8.90;;
8652;SDS011;4364;52.426;9.424;2023-07-09T04:20:48;10.53;;;8.80;;
8652;SDS011;4364;52.426;9.424;2023-07-09T04:23:16;9.77;;;8.80;;
8652;SDS011;4364;52.426;9.424;2023-07-09T04:25:43;11.60;;;8.67;;
8652;SDS011;4364;52.426;9.424;2023-07-09T04:28:09;10.50;;;8.50;;
8652;SDS011;4364;52.426;9.424;2023-07-09T04:30:36;9.80;;;8.47;;
8652;SDS011;4364;52.426;9.424;2023-07-09T04:33:02;11.93;;;8.77;;
8652;SDS011;4364;52.426;9.424;2023-07-09T04:35:29;10.33;;;8.73;;
8652;SDS011;4364;52.426;9.424;2023-07-09T04:37:56;9.83;;;8.03;;
8652;SDS011;4364;52.426;9.424;2023-07-09T04:40:22;12.93;;;8.73;;
8652;SDS011;4364;52.426;9.424;2023-07-09T04:42:49;10.37;;;8.07;;
8652;SDS011;4364;52.426;9.424;2023-07-09T04:45:16;10.33;;;9.03;;
8652;SDS011;4364;52.426;9.424;2023-07-09T04:47:43;11.17;;;9.00;;
8652;SDS011;4364;52.426;9.424;2023-07-09T04:50:10;11.10;;;8.07;;
8652;SDS011;4364;52.426;9.424;2023-07-09T04:52:37;9.80;;;8.20;;
8652;SDS011;4364;52.426;9.424;2023-07-09T04:55:04;10.10;;;8.20;;
8652;SDS011;4364;52.426;9.424;2023-07-09T04:57:31;9.57;;;8.03;;
8652;SDS011;4364;52.426;9.424;2023-07-09T04:59:58;10.13;;;8.30;;
8652;SDS011;4364;52.426;9.424;2023-07-09T05:02:25;8.73;;;7.83;;
8652;SDS011;4364;52.426;9.424;2023-07-09T05:04:51;10.17;;;8.07;;
8652;SDS011;4364;52.426;9.424;2023-07-09T05:07:18;9.40;;;7.73;;
8652;SDS011;4364;52.426;9.424;2023-07-09T05:09:44;8.63;;;7.83;;
8652;SDS011;4364;52.426;9.424;2023-07-09T05:12:11;8.63;;;7.73;;
8652;SDS011;4364;52.426;9.424;2023-07-09T05:14:37;8.37;;;7.47;;
8652;SDS011;4364;52.426;9.424;2023-07-09T05:17:04;7.93;;;7.10;;
8652;SDS011;4364;52.426;9.424;2023-07-09T05:19:31;9.60;;;7.50;;
8652;SDS011;4364;52.426;9.424;2023-07-09T05:21:57;9.10;;;7.57;;
8652;SDS011;4364;52.426;9.424;2023-07-09T05:24:25;10.93;;;8.20;;
8652;SDS011;4364;52.426;9.424;2023-07-09T05:26:54;11.07;;;7.97;;
8652;SDS011;4364;52.426;9.424;2023-07-09T05:29:21;8.20;;;7.27;;
8652;SDS011;4364;52.426;9.424;2023-07-09T05:31:47;8.00;;;7.20;;
8652;SDS011;4364;52.426;9.424;2023-07-09T05:34:14;9.77;;;7.80;;
8652;SDS011;4364;52.426;9.424;2023-07-09T05:36:41;10.00;;;8.20;;
8652;SDS011;4364;52.426;9.424;2023-07-09T05:39:07;10.60;;;7.87;;
8652;SDS011;4364;52.426;9.424;2023-07-09T05:41:34;8.87;;;7.67;;
8652;SDS011;4364;52.426;9.424;2023-07-09T05:44:01;10.03;;;7.87;;
8652;SDS011;4364;52.426;9.424;2023-07-09T05:46:27;9.03;;;7.17;;
8652;SDS011;4364;52.426;9.424;2023-07-09T05:48:54;8.70;;;7.20;;
8652;SDS011;4364;52.426;9.424;2023-07-09T05:51:20;11.17;;;7.33;;
8652;SDS011;4364;52.426;9.424;2023-07-09T05:53:47;8.13;;;7.20;;
8652;SDS011;4364;52.426;9.424;2023-07-09T05:56:14;8.83;;;7.07;;
8652;SDS011;4364;52.426;9.424;2023-07-09T05:58:40;8.87;;;7.23;;
8652;SDS011;4364;52.426;9.424;2023-07-09T06:01:07;9.40;;;7.17;;
8652;SDS011;4364;52.426;9.424;2023-07-09T06:03:33;8.70;;;7.53;;
8652;SDS011;4364;52.426;9.424;2023-07-09T06:06:00;8.17;;;7.10;;
8652;SDS011;4364;52.426;9.424;2023-07-09T06:08:27;9.00;;;7.47;;
8652;SDS011;4364;52.426;9.424;2023-07-09T06:10:55;8.30;;;7.40;;
8652;SDS011;4364;52.426;9.424;2023-07-09T06:13:23;8.50;;;6.50;;
8652;SDS011;4364;52.426;9.424;2023-07-09T06:15:51;8.17;;;7.07;;
8652;SDS011;4364;52.426;9.424;2023-07-09T06:18:19;7.77;;;6.40;;
8652;SDS011;4364;52.426;9.424;2023-07-09T06:20:47;7.97;;;6.60;;
8652;SDS011;4364;52.426;9.424;2023-07-09T06:23:18;7.18;;;6.47;;
8652;SDS011;4364;52.426;9.424;2023-07-09T06:25:45;10.23;;;7.00;;
8652;SDS011;4364;52.426;9.424;2023-07-09T06:28:17;7.90;;;7.00;;
8652;SDS011;4364;52.426;9.424;2023-07-09T06:30:45;7.95;;;7.00;;
8652;SDS011;4364;52.426;9.424;2023-07-09T06:33:13;9.23;;;6.97;;
8652;SDS011;4364;52.426;9.424;2023-07-09T06:35:50;8.70;;;6.90;;
8652;SDS011;4364;52.426;9.424;2023-07-09T06:38:19;8.13;;;7.07;;
8652;SDS011;4364;52.426;9.424;2023-07-09T06:40:46;8.68;;;6.90;;
8652;SDS011;4364;52.426;9.424;2023-07-09T06:43:13;8.48;;;6.63;;
8652;SDS011;4364;52.426;9.424;2023-07-09T06:45:47;9.68;;;6.45;;
8652;SDS011;4364;52.426;9.424;2023-07-09T06:48:15;7.40;;;6.65;;
8652;SDS011;4364;52.426;9.424;2023-07-09T06:50:41;7.38;;;6.38;;
8652;SDS011;4364;52.426;9.424;2023-07-09T06:53:08;9.77;;;7.03;;
8652;SDS011;4364;52.426;9.424;2023-07-09T06:55:35;8.15;;;6.55;;
8652;SDS011;4364;52.426;9.424;2023-07-09T06:58:02;7.70;;;6.90;;
8652;SDS011;4364;52.426;9.424;2023-07-09T07:00:29;7.38;;;6.50;;
8652;SDS011;4364;52.426;9.424;2023-07-09T07:02:55;7.35;;;6.65;;
8652;SDS011;4364;52.426;9.424;2023-07-09T07:05:22;7.90;;;6.50;;
8652;SDS011;4364;52.426;9.424;2023-07-09T07:07:48;6.88;;;6.25;;
8652;SDS011;4364;52.426;9.424;2023-07-09T07:10:15;7.18;;;6.45;;
8652;SDS011;4364;52.426;9.424;2023-07-09T07:12:42;9.18;;;7.03;;
8652;SDS011;4364;52.426;9.424;2023-07-09T07:15:11;10.10;;;6.60;;
8652;SDS011;4364;52.426;9.424;2023-07-09T07:17:39;7.13;;;6.38;;
8652;SDS011;4364;52.426;9.424;2023-07-09T07:20:07;7.25;;;6.50;;
8652;SDS011;4364;52.426;9.424;2023-07-09T07:22:35;7.43;;;6.35;;
8652;SDS011;4364;52.426;9.424;2023-07-09T07:25:02;7.95;;;6.45;;
8652;SDS011;4364;52.426;9.424;2023-07-09T07:27:29;8.63;;;6.65;;
8652;SDS011;4364;52.426;9.424;2023-07-09T07:29:56;7.68;;;6.05;;
8652;SDS011;4364;52.426;9.424;2023-07-09T07:32:23;7.43;;;6.30;;
8652;SDS011;4364;52.426;9.424;2023-07-09T07:34:50;9.27;;;6.80;;
8652;SDS011;4364;52.426;9.424;2023-07-09T07:37:19;8.25;;;6.80;;
8652;SDS011;4364;52.426;9.424;2023-07-09T07:39:47;8.25;;;6.35;;
8652;SDS011;4364;52.426;9.424;2023-07-09T07:42:14;7.00;;;6.32;;
8652;SDS011;4364;52.426;9.424;2023-07-09T07:44:41;7.90;;;6.18;;
8652;SDS011;4364;52.426;9.424;2023-07-09T07:47:07;6.68;;;5.80;;
8652;SDS011;4364;52.426;9.424;2023-07-09T07:49:34;7.20;;;6.50;;
8652;SDS011;4364;52.426;9.424;2023-07-09T07:52:01;7.22;;;6.55;;
8652;SDS011;4364;52.426;9.424;2023-07-09T07:54:30;7.93;;;6.45;;
8652;SDS011;4364;52.426;9.424;2023-07-09T07:56:58;6.88;;;6.20;;
8652;SDS011;4364;52.426;9.424;2023-07-09T07:59:25;6.68;;;5.97;;
8652;SDS011;4364;52.426;9.424;2023-07-09T08:01:51;7.15;;;5.93;;
8652;SDS011;4364;52.426;9.424;2023-07-09T08:04:18;7.80;;;6.53;;
8652;SDS011;4364;52.426;9.424;2023-07-09T08:06:44;7.03;;;6.22;;
8652;SDS011;4364;52.426;9.424;2023-07-09T08:09:11;7.30;;;6.20;;
8652;SDS011;4364;52.426;9.424;2023-07-09T08:11:37;6.95;;;6.22;;
8652;SDS011;4364;52.426;9.424;2023-07-09T08:14:04;7.47;;;6.78;;
8652;SDS011;4364;52.426;9.424;2023-07-09T08:16:31;7.15;;;6.45;;
8652;SDS011;4364;52.426;9.424;2023-07-09T08:18:57;9.00;;;6.50;;
8652;SDS011;4364;52.426;9.424;2023-07-09T08:21:24;9.52;;;6.60;;
8652;SDS011;4364;52.426;9.424;2023-07-09T08:23:51;7.35;;;6.50;;
8652;SDS011;4364;52.426;9.424;2023-07-09T08:26:17;7.03;;;6.32;;
8652;SDS011;4364;52.426;9.424;2023-07-09T08:28:43;7.32;;;6.60;;
8652;SDS011;4364;52.426;9.424;2023-07-09T08:31:10;8.25;;;6.88;;
8652;SDS011;4364;52.426;9.424;2023-07-09T08:33:37;8.38;;;6.63;;
8652;SDS011;4364;52.426;9.424;2023-07-09T08:36:03;6.82;;;6.22;;
8652;SDS011;4364;52.426;9.424;2023-07-09T08:38:30;8.65;;;6.38;;
8652;SDS011;4364;52.426;9.424;2023-07-09T08:43:58;8.85;;;7.10;;
8652;SDS011;4364;52.426;9.424;2023-07-09T08:46:48;7.47;;;6.72;;
8652;SDS011;4364;52.426;9.424;2023-07-09T08:49:21;7.47;;;6.53;;
8652;SDS011;4364;52.426;9.424;2023-07-09T08:51:53;8.13;;;6.68;;
8652;SDS011;4364;52.426;9.424;2023-07-09T08:54:28;7.25;;;6.55;;
8652;SDS011;4364;52.426;9.424;2023-07-09T08:56:59;6.97;;;6.25;;
8652;SDS011;4364;52.426;9.424;2023-07-09T08:59:33;7.55;;;6.85;;
8652;SDS011;4364;52.426;9.424;2023-07-09T09:02:01;6.97;;;6.28;;
8652;SDS011;4364;52.426;9.424;2023-07-09T09:04:34;7.75;;;6.97;;
8652;SDS011;4364;52.426;9.424;2023-07-09T09:07:11;7.88;;;6.68;;
8652;SDS011;4364;52.426;9.424;2023-07-09T09:15:08;8.60;;;6.82;;
8652;SDS011;4364;52.426;9.424;2023-07-09T09:17:37;7.53;;;6.43;;
8652;SDS011;4364;52.426;9.424;2023-07-09T09:20:15;9.32;;;6.80;;
8652;SDS011;4364;52.426;9.424;2023-07-09T09:22:53;7.75;;;6.95;;
8652;SDS011;4364;52.426;9.424;2023-07-09T09:25:40;8.93;;;6.70;;
8652;SDS011;4364;52.426;9.424;2023-07-09T09:28:13;8.55;;;6.78;;
8652;SDS011;4364;52.426;9.424;2023-07-09T09:30:40;6.93;;;6.22;;
8652;SDS011;4364;52.426;9.424;2023-07-09T09:33:07;7.43;;;6.63;;
8652;SDS011;4364;52.426;9.424;2023-07-09T09:35:40;6.80;;;6.20;;
8652;SDS011;4364;52.426;9.424;2023-07-09T09:38:11;7.03;;;6.32;;
8652;SDS011;4364;52.426;9.424;2023-07-09T09:40:39;7.90;;;7.10;;
8652;SDS011;4364;52.426;9.424;2023-07-09T09:43:11;8.13;;;6.63;;
8652;SDS011;4364;52.426;9.424;2023-07-09T09:45:40;8.55;;;6.60;;
8652;SDS011;4364;52.426;9.424;2023-07-09T09:50:44;7.57;;;6.30;;
8652;SDS011;4364;52.426;9.424;2023-07-09T09:53:20;9.30;;;7.13;;
8652;SDS011;4364;52.426;9.424;2023-07-09T09:55:48;7.63;;;6.65;;
8652;SDS011;4364;52.426;9.424;2023-07-09T09:58:17;8.63;;;7.03;;
8652;SDS011;4364;52.426;9.424;2023-07-09T10:00:48;8.10;;;6.53;;
8652;SDS011;4364;52.426;9.424;2023-07-09T10:03:19;7.30;;;6.57;;
8652;SDS011;4364;52.426;9.424;2023-07-09T10:05:49;7.60;;;6.80;;
8652;SDS011;4364;52.426;9.424;2023-07-09T10:11:08;8.05;;;6.63;;
8652;SDS011;4364;52.426;9.424;2023-07-09T10:13:44;9.10;;;6.20;;
8652;SDS011;4364;52.426;9.424;2023-07-09T10:16:19;9.52;;;6.80;;
8652;SDS011;4364;52.426;9.424;2023-07-09T10:18:59;9.30;;;6.80;;
8652;SDS011;4364;52.426;9.424;2023-07-09T10:21:46;8.88;;;6.80;;
8652;SDS011;4364;52.426;9.424;2023-07-09T10:24:23;10.65;;;7.10;;
8652;SDS011;4364;52.426;9.424;2023-07-09T10:35:15;7.53;;;6.72;;
8652;SDS011;4364;52.426;9.424;2023-07-09T10:37:55;9.50;;;7.22;;
8652;SDS011;4364;52.426;9.424;2023-07-09T10:40:37;7.63;;;6.85;;
8652;SDS011;4364;52.426;9.424;2023-07-09T10:43:10;8.48;;;7.28;;
8652;SDS011;4364;52.426;9.424;2023-07-09T10:46:02;7.68;;;6.88;;
8652;SDS011;4364;52.426;9.424;2023-07-09T10:48:38;7.55;;;6.85;;
8652;SDS011;4364;52.426;9.424;2023-07-09T10:51:19;7.60;;;6.90;;
8652;SDS011;4364;52.426;9.424;2023-07-09T10:53:56;7.35;;;6.65;;
8652;SDS011;4364;52.426;9.424;2023-07-09T10:56:28;7.93;;;7.10;;
8652;SDS011;4364;52.426;9.424;2023-07-09T11:01:35;9.70;;;7.05;;
8652;SDS011;4364;52.426;9.424;2023-07-09T11:04:10;8.75;;;7.28;;
8652;SDS011;4364;52.426;9.424;2023-07-09T11:06:47;8.40;;;7.47;;
8652;SDS011;4364;52.426;9.424;2023-07-09T11:09:24;8.55;;;7.55;;
8652;SDS011;4364;52.426;9.424;2023-07-09T11:12:49;7.75;;;6.95;;
8652;SDS011;4364;52.426;9.424;2023-07-09T11:14:56;8.57;;;7.65;;
8652;SDS011;4364;52.426;9.424;2023-07-09T11:17:23;9.10;;;7.30;;
8652;SDS011;4364;52.426;9.424;2023-07-09T11:19:58;9.25;;;7.43;;
8652;SDS011;4364;52.426;9.424;2023-07-09T11:22:38;8.25;;;7.10;;
8652;SDS011;4364;52.426;9.424;2023-07-09T11:25:10;7.70;;;6.97;;
8652;SDS011;4364;52.426;9.424;2023-07-09T11:27:46;7.93;;;7.22;;
8652;SDS011;4364;52.426;9.424;2023-07-09T11:30:20;8.10;;;7.30;;
8652;SDS011;4364;52.426;9.424;2023-07-09T11:32:53;8.13;;;7.40;;
8652;SDS011;4364;52.426;9.424;2023-07-09T11:35:47;8.05;;;7.30;;
8652;SDS011;4364;52.426;9.424;2023-07-09T11:38:17;8.00;;;7.22;;
8652;SDS011;4364;52.426;9.424;2023-07-09T11:40:47;8.20;;;7.40;;
8652;SDS011;4364;52.426;9.424;2023-07-09T11:43:34;8.50;;;7.25;;
8652;SDS011;4364;52.426;9.424;2023-07-09T11:46:25;8.48;;;7.57;;
8652;SDS011;4364;52.426;9.424;2023-07-09T11:48:53;10.48;;;7.18;;
8652;SDS011;4364;52.426;9.424;2023-07-09T11:51:26;8.50;;;7.65;;
8652;SDS011;4364;52.426;9.424;2023-07-09T11:54:03;8.88;;;7.88;;
8652;SDS011;4364;52.426;9.424;2023-07-09T11:56:30;8.45;;;7.47;;
8652;SDS011;4364;52.426;9.424;2023-07-09T11:58:58;9.23;;;7.28;;
8652;SDS011;4364;52.426;9.424;2023-07-09T12:01:33;9.20;;;7.18;;
8652;SDS011;4364;52.426;9.424;2023-07-09T12:04:05;8.02;;;7.00;;
8652;SDS011;4364;52.426;9.424;2023-07-09T12:06:32;10.27;;;7.53;;
8652;SDS011;4364;52.426;9.424;2023-07-09T12:08:59;8.60;;;7.70;;
8652;SDS011;4364;52.426;9.424;2023-07-09T12:11:29;9.02;;;7.35;;
8652;SDS011;4364;52.426;9.424;2023-07-09T12:14:31;8.70;;;7.30;;
8652;SDS011;4364;52.426;9.424;2023-07-09T12:16:51;8.40;;;7.60;;
8652;SDS011;4364;52.426;9.424;2023-07-09T12:19:19;8.10;;;7.35;;
8652;SDS011;4364;52.426;9.424;2023-07-09T12:21:48;8.38;;;7.47;;
8652;SDS011;4364;52.426;9.424;2023-07-09T12:27:03;8.43;;;7.20;;
8652;SDS011;4364;52.426;9.424;2023-07-09T12:29:42;9.05;;;7.50;;
8652;SDS011;4364;52.426;9.424;2023-07-09T12:32:11;9.27;;;7.55;;
8652;SDS011;4364;52.426;9.424;2023-07-09T12:34:39;9.75;;;7.57;;
8652;SDS011;4364;52.426;9.424;2023-07-09T12:37:07;8.50;;;7.60;;
8652;SDS011;4364;52.426;9.424;2023-07-09T12:39:39;9.48;;;7.68;;
8652;SDS011;4364;52.426;9.424;2023-07-09T12:42:12;8.32;;;7.45;;
8652;SDS011;4364;52.426;9.424;2023-07-09T12:44:45;9.25;;;7.10;;
8652;SDS011;4364;52.426;9.424;2023-07-09T12:47:13;10.40;;;7.65;;
8652;SDS011;4364;52.426;9.424;2023-07-09T12:49:42;8.13;;;7.40;;
8652;SDS011;4364;52.426;9.424;2023-07-09T12:52:17;8.05;;;7.25;;
8652;SDS011;4364;52.426;9.424;2023-07-09T12:54:55;10.90;;;7.93;;
8652;SDS011;4364;52.426;9.424;2023-07-09T12:57:23;10.48;;;7.28;;
8652;SDS011;4364;52.426;9.424;2023-07-09T12:59:51;8.40;;;7.40;;
8652;SDS011;4364;52.426;9.424;2023-07-09T13:04:46;9.93;;;7.80;;
8652;SDS011;4364;52.426;9.424;2023-07-09T13:09:52;8.90;;;7.50;;
8652;SDS011;4364;52.426;9.424;2023-07-09T13:12:22;8.63;;;7.80;;
8652;SDS011;4364;52.426;9.424;2023-07-09T13:14:56;9.98;;;7.68;;
8652;SDS011;4364;52.426;9.424;2023-07-09T13:17:30;8.05;;;7.25;;
8652;SDS011;4364;52.426;9.424;2023-07-09T13:19:57;9.57;;;8.27;;
8652;SDS011;4364;52.426;9.424;2023-07-09T13:22:27;9.45;;;8.07;;
8652;SDS011;4364;52.426;9.424;2023-07-09T13:24:54;10.77;;;7.53;;
8652;SDS011;4364;52.426;9.424;2023-07-09T13:27:21;9.23;;;8.27;;
8652;SDS011;4364;52.426;9.424;2023-07-09T13:29:47;8.50;;;7.70;;
8652;SDS011;4364;52.426;9.424;2023-07-09T13:32:14;8.57;;;7.68;;
8652;SDS011;4364;52.426;9.424;2023-07-09T13:34:42;8.88;;;7.70;;
8652;SDS011;4364;52.426;9.424;2023-07-09T13:37:13;8.63;;;7.70;;
8652;SDS011;4364;52.426;9.424;2023-07-09T13:39:41;9.45;;;7.70;;
8652;SDS011;4364;52.426;9.424;2023-07-09T13:42:13;8.65;;;7.85;;
8652;SDS011;4364;52.426;9.424;2023-07-09T13:44:42;11.02;;;8.27;;
8652;SDS011;4364;52.426;9.424;2023-07-09T13:47:14;9.68;;;8.18;;
8652;SDS011;4364;52.426;9.424;2023-07-09T13:49:43;9.52;;;7.55;;
8652;SDS011;4364;52.426;9.424;2023-07-09T13:52:21;8.77;;;7.80;;
8652;SDS011;4364;52.426;9.424;2023-07-09T13:54:50;8.57;;;7.70;;
8652;SDS011;4364;52.426;9.424;2023-07-09T13:57:17;8.63;;;7.38;;
8652;SDS011;4364;52.426;9.424;2023-07-09T13:59:47;9.70;;;8.70;;
8652;SDS011;4364;52.426;9.424;2023-07-09T14:02:19;11.43;;;7.63;;
8652;SDS011;4364;52.426;9.424;2023-07-09T14:04:50;8.32;;;7.53;;
8652;SDS011;4364;52.426;9.424;2023-07-09T14:07:25;8.50;;;7.60;;
8652;SDS011;4364;52.426;9.424;2023-07-09T14:09:58;8.40;;;7.57;;
8652;SDS011;4364;52.426;9.424;2023-07-09T14:12:26;9.35;;;7.88;;
8652;SDS011;4364;52.426;9.424;2023-07-09T14:14:56;8.50;;;7.70;;
8652;SDS011;4364;52.426;9.424;2023-07-09T14:17:25;8.55;;;7.75;;
8652;SDS011;4364;52.426;9.424;2023-07-09T14:19:52;9.82;;;7.65;;
8652;SDS011;4364;52.426;9.424;2023-07-09T14:22:32;8.50;;;7.60;;
8652;SDS011;4364;52.426;9.424;2023-07-09T14:25:03;10.57;;;8.10;;
8652;SDS011;4364;52.426;9.424;2023-07-09T14:27:31;8.57;;;7.78;;
8652;SDS011;4364;52.426;9.424;2023-07-09T14:29:58;8.13;;;7.32;;
8652;SDS011;4364;52.426;9.424;2023-07-09T14:32:33;8.93;;;7.32;;
8652;SDS011;4364;52.426;9.424;2023-07-09T14:35:03;8.35;;;7.55;;
8652;SDS011;4364;52.426;9.424;2023-07-09T14:37:48;8.57;;;7.60;;
8652;SDS011;4364;52.426;9.424;2023-07-09T14:40:16;7.97;;;7.28;;
8652;SDS011;4364;52.426;9.424;2023-07-09T14:42:44;7.75;;;7.05;;
8652;SDS011;4364;52.426;9.424;2023-07-09T14:47:46;9.85;;;7.28;;
8652;SDS011;4364;52.426;9.424;2023-07-09T14:50:13;8.52;;;7.63;;
8652;SDS011;4364;52.426;9.424;2023-07-09T14:52:40;8.45;;;7.55;;
8652;SDS011;4364;52.426;9.424;2023-07-09T14:55:12;9.35;;;7.72;;
8652;SDS011;4364;52.426;9.424;2023-07-09T14:57:40;9.55;;;7.35;;
8652;SDS011;4364;52.426;9.424;2023-07-09T15:00:11;10.82;;;8.05;;
8652;SDS011;4364;52.426;9.424;2023-07-09T15:02:42;8.68;;;7.32;;
8652;SDS011;4364;52.426;9.424;2023-07-09T15:05:12;9.77;;;7.28;;
8652;SDS011;4364;52.426;9.424;2023-07-09T15:07:44;10.25;;;7.50;;
8652;SDS011;4364;52.426;9.424;2023-07-09T15:10:12;8.35;;;7.50;;
8652;SDS011;4364;52.426;9.424;2023-07-09T15:12:39;8.38;;;7.25;;
8652;SDS011;4364;52.426;9.424;2023-07-09T15:17:38;8.68;;;7.35;;
8652;SDS011;4364;52.426;9.424;2023-07-09T15:20:05;9.02;;;7.88;;
8652;SDS011;4364;52.426;9.424;2023-07-09T15:22:38;9.27;;;7.53;;
8652;SDS011;4364;52.426;9.424;2023-07-09T15:25:09;9.00;;;6.97;;
8652;SDS011;4364;52.426;9.424;2023-07-09T15:27:39;9.70;;;7.60;;
8652;SDS011;4364;52.426;9.424;2023-07-09T15:30:39;8.20;;;7.40;;
8652;SDS011;4364;52.426;9.424;2023-07-09T15:32:59;10.48;;;6.88;;
8652;SDS011;4364;52.426;9.424;2023-07-09T15:35:35;8.60;;;7.30;;
8652;SDS011;4364;52.426;9.424;2023-07-09T15:38:12;8.98;;;7.40;;
8652;SDS011;4364;52.426;9.424;2023-07-09T15:40:54;7.72;;;7.00;;
8652;SDS011;4364;52.426;9.424;2023-07-09T15:43:21;10.25;;;7.78;;
8652;SDS011;4364;52.426;9.424;2023-07-09T15:45:49;9.15;;;7.57;;
8652;SDS011;4364;52.426;9.424;2023-07-09T15:48:35;8.82;;;6.90;;
8652;SDS011;4364;52.426;9.424;2023-07-09T15:51:03;8.60;;;7.38;;
8652;SDS011;4364;52.426;9.424;2023-07-09T15:53:31;10.07;;;7.38;;
8652;SDS011;4364;52.426;9.424;2023-07-09T15:56:44;8.00;;;7.30;;
8652;SDS011;4364;52.426;9.424;2023-07-09T15:58:54;8.93;;;7.80;;
8652;SDS011;4364;52.426;9.424;2023-07-09T16:01:21;10.23;;;7.63;;